Time;durP1;ratioP1;P1;durP2;ratioP2;P2;SDS_P1;SDS_P2;PMS_P1;PMS_P2;Temp;Humidity;BMP_temperature;BMP_pressure;BME280_temperature;BME280_humidity;BME280_pressure;Samples;Min_cycle;Max_cycle;Signal;HPM_P1;HPM_P2
2023/05/23 00:01:06;;;;;;;47.13;18.92;;;14.00;99.90;;;;;;5151030;27;20050;-81
2023/05/23 00:03:32;;;;;;;43.92;19.20;;;13.90;99.90;;;;;;5131427;27;20047;-80
2023/05/23 00:05:58;;;;;;;50.35;18.25;;;13.90;99.90;;;;;;5131457;27;20046;-80
2023/05/23 00:08:24;;;;;;;43.83;18.50;;;13.90;99.90;;;;;;5131723;27;20446;-80
2023/05/23 00:10:50;;;;;;;44.15;18.20;;;14.00;99.90;;;;;;5132657;27;20041;-80
2023/05/23 00:13:16;;;;;;;40.25;15.63;;;13.90;99.90;;;;;;5131449;27;20047;-81
2023/05/23 00:15:43;;;;;;;50.70;16.67;;;13.90;99.90;;;;;;5131025;27;20050;-80
2023/05/23 00:18:10;;;;;;;47.63;16.50;;;13.90;99.90;;;;;;5115012;27;20081;-81
2023/05/23 00:20:39;;;;;;;37.25;14.75;;;13.90;99.90;;;;;;5131200;27;20124;-81
2023/05/23 00:23:06;;;;;;;41.28;14.98;;;13.90;99.90;;;;;;5151179;27;20081;-81
2023/05/23 00:25:33;;;;;;;44.60;15.82;;;13.90;99.90;;;;;;5118625;27;20051;-80
2023/05/23 00:27:59;;;;;;;36.15;16.88;;;13.90;99.90;;;;;;5148889;27;20053;-80
2023/05/23 00:30:26;;;;;;;38.67;15.98;;;13.90;99.90;;;;;;5128045;27;20058;-80
2023/05/23 00:32:53;;;;;;;33.15;15.75;;;13.80;99.90;;;;;;5114374;27;20118;-80
2023/05/23 00:35:19;;;;;;;37.13;16.52;;;13.80;99.90;;;;;;5123175;27;20046;-80
2023/05/23 00:37:49;;;;;;;44.47;16.30;;;13.80;99.90;;;;;;5131673;27;20050;-80
2023/05/23 00:40:15;;;;;;;39.90;15.50;;;13.80;99.90;;;;;;5128195;27;20055;-80
2023/05/23 00:42:41;;;;;;;33.30;16.33;;;13.80;99.90;;;;;;5127004;27;20050;-80
2023/05/23 00:45:07;;;;;;;36.22;17.15;;;13.80;99.90;;;;;;5124554;27;20046;-79
2023/05/23 00:47:32;;;;;;;42.47;18.88;;;13.80;99.90;;;;;;5130423;27;20039;-80
2023/05/23 00:49:58;;;;;;;37.05;17.98;;;13.70;99.90;;;;;;5127577;27;20046;-79
2023/05/23 00:52:24;;;;;;;35.72;19.27;;;13.70;99.90;;;;;;5130844;27;20409;-80
2023/05/23 00:54:50;;;;;;;38.03;19.30;;;13.70;99.90;;;;;;5149964;27;20046;-79
2023/05/23 00:57:16;;;;;;;34.90;17.48;;;13.70;99.90;;;;;;5127395;27;20379;-79
2023/05/23 00:59:44;;;;;;;33.13;16.85;;;13.70;99.90;;;;;;5103040;27;20058;-80
2023/05/23 01:02:11;;;;;;;27.50;15.13;;;13.70;99.90;;;;;;5148491;27;20065;-79
2023/05/23 01:04:38;;;;;;;29.88;14.73;;;13.70;99.90;;;;;;5127384;27;20059;-79
2023/05/23 01:07:04;;;;;;;30.50;14.10;;;13.60;99.90;;;;;;5131332;27;20046;-80
2023/05/23 01:09:30;;;;;;;21.52;12.30;;;13.60;99.90;;;;;;5126769;27;20554;-79
2023/05/23 01:12:04;;;;;;;25.83;12.30;;;13.60;99.90;;;;;;5130921;27;20627;-79
2023/05/23 01:14:34;;;;;;;;;;;13.50;99.90;;;;;;5128589;27;20214;-80
2023/05/23 01:17:08;;;;;;;21.40;10.90;;;13.50;99.90;;;;;;5148465;27;20367;-80
2023/05/23 01:20:00;;;;;;;30.92;11.23;;;13.50;99.90;;;;;;5129049;27;20130;-80
2023/05/23 01:22:43;;;;;;;22.67;10.35;;;13.50;99.90;;;;;;5127018;27;20058;-80
2023/05/23 01:25:08;;;;;;;24.67;10.43;;;13.50;99.90;;;;;;5130110;27;20086;-80
2023/05/23 01:27:54;;;;;;;20.27;9.13;;;13.40;99.90;;;;;;5130045;27;20046;-80
2023/05/23 01:30:22;;;;;;;22.20;8.52;;;13.40;99.90;;;;;;5128763;27;20042;-80
2023/05/23 01:32:50;;;;;;;21.23;8.88;;;13.40;99.90;;;;;;5125585;27;20055;-79
2023/05/23 01:35:25;;;;;;;23.85;8.80;;;13.40;99.90;;;;;;5122093;27;20496;-80
2023/05/23 01:37:52;;;;;;;17.45;8.43;;;13.40;99.90;;;;;;5110014;27;20118;-80
2023/05/23 01:40:18;;;;;;;23.30;8.88;;;13.30;99.90;;;;;;5142012;27;20067;-80
2023/05/23 01:42:44;;;;;;;30.45;9.93;;;13.30;99.90;;;;;;5130460;27;20397;-80
2023/05/23 01:45:11;;;;;;;36.15;10.98;;;13.20;99.90;;;;;;5128957;27;20050;-79
2023/05/23 01:47:38;;;;;;;30.90;9.45;;;13.20;99.90;;;;;;5126961;27;20046;-80
2023/05/23 01:50:05;;;;;;;33.22;10.23;;;13.10;99.90;;;;;;5138161;27;20398;-80
2023/05/23 01:52:31;;;;;;;38.92;10.43;;;13.10;99.90;;;;;;5129128;27;20084;-80
2023/05/23 01:54:58;;;;;;;31.05;10.15;;;13.10;99.90;;;;;;5127701;27;20039;-80
2023/05/23 01:57:28;;;;;;;37.67;10.32;;;13.00;99.90;;;;;;5129291;27;20405;-80
2023/05/23 01:59:53;;;;;;;40.97;11.50;;;13.00;99.90;;;;;;5129078;27;20062;-80
2023/05/23 02:02:19;;;;;;;37.53;10.52;;;12.90;99.90;;;;;;5129349;27;20054;-80
2023/05/23 02:04:45;;;;;;;41.97;11.10;;;12.90;99.90;;;;;;5113242;27;20043;-80
2023/05/23 02:07:11;;;;;;;42.17;12.32;;;12.80;99.90;;;;;;5129097;27;20062;-80
2023/05/23 02:09:36;;;;;;;42.05;11.85;;;12.70;99.90;;;;;;5129364;27;20042;-80
2023/05/23 02:12:02;;;;;;;38.72;11.93;;;12.70;99.90;;;;;;5130275;27;20042;-80
2023/05/23 02:14:28;;;;;;;37.08;10.93;;;12.70;99.90;;;;;;5128082;27;20053;-80
2023/05/23 02:16:54;;;;;;;34.22;11.43;;;12.70;99.90;;;;;;5148366;27;20456;-80
2023/05/23 02:19:19;;;;;;;40.47;11.02;;;12.60;99.90;;;;;;5147694;27;20050;-80
2023/05/23 02:21:45;;;;;;;28.85;10.32;;;12.70;99.90;;;;;;5130355;27;20057;-80
2023/05/23 02:24:11;;;;;;;30.08;9.52;;;12.60;99.90;;;;;;5129256;27;20091;-80
2023/05/23 02:26:36;;;;;;;26.58;9.10;;;12.60;99.90;;;;;;5115827;27;20607;-80
2023/05/23 02:29:02;;;;;;;27.63;9.75;;;12.60;99.90;;;;;;5117514;27;20126;-80
2023/05/23 02:31:28;;;;;;;28.00;8.90;;;12.60;99.90;;;;;;5151785;27;20046;-80
2023/05/23 02:33:54;;;;;;;30.15;9.07;;;12.50;99.90;;;;;;5154395;27;20434;-80
2023/05/23 02:36:20;;;;;;;27.50;8.52;;;12.50;99.90;;;;;;5136168;27;20458;-80
2023/05/23 02:38:46;;;;;;;24.10;7.47;;;12.50;99.90;;;;;;5119142;27;20046;-80
2023/05/23 02:41:11;;;;;;;26.55;7.78;;;12.40;99.90;;;;;;5154789;27;20091;-81
2023/05/23 02:43:38;;;;;;;26.98;8.73;;;12.40;99.90;;;;;;5134154;27;20130;-82
2023/05/23 02:46:03;;;;;;;33.58;9.18;;;12.30;99.90;;;;;;5132651;27;20100;-82
2023/05/23 02:48:29;;;;;;;25.17;8.65;;;12.30;99.90;;;;;;5112360;27;20488;-82
2023/05/23 02:50:55;;;;;;;28.08;9.27;;;12.20;99.90;;;;;;5119339;27;20038;-82
2023/05/23 02:53:21;;;;;;;32.83;9.52;;;12.10;99.90;;;;;;5119126;27;20039;-82
2023/05/23 02:55:47;;;;;;;38.80;10.27;;;12.10;99.90;;;;;;5132743;27;20066;-83
2023/05/23 02:58:12;;;;;;;38.97;9.60;;;12.10;99.90;;;;;;5111343;27;20097;-82
2023/05/23 03:00:38;;;;;;;36.58;10.10;;;12.10;99.90;;;;;;5133027;27;20046;-83
2023/05/23 03:03:04;;;;;;;42.47;11.05;;;12.00;99.90;;;;;;5128197;27;20457;-82
2023/05/23 03:05:29;;;;;;;39.20;10.35;;;12.00;99.90;;;;;;5132602;27;20410;-82
2023/05/23 03:07:56;;;;;;;35.95;9.10;;;12.00;99.90;;;;;;5128885;27;20049;-82
2023/05/23 03:10:22;;;;;;;36.92;9.73;;;12.00;99.90;;;;;;5117635;27;20449;-82
2023/05/23 03:12:47;;;;;;;42.70;10.27;;;12.00;99.90;;;;;;5119231;27;20050;-82
2023/05/23 03:15:13;;;;;;;37.05;9.90;;;12.00;99.90;;;;;;5135611;27;20042;-82
2023/05/23 03:17:39;;;;;;;35.08;8.98;;;12.00;99.90;;;;;;5134932;27;20061;-82
2023/05/23 03:20:08;;;;;;;30.15;9.60;;;12.00;99.90;;;;;;5119207;27;20367;-82
2023/05/23 03:22:35;;;;;;;34.22;8.90;;;12.00;99.90;;;;;;5117985;27;20039;-82
2023/05/23 03:25:00;;;;;;;30.83;9.55;;;12.00;99.90;;;;;;5128787;27;20130;-82
2023/05/23 03:27:26;;;;;;;27.58;9.45;;;12.00;99.90;;;;;;5129378;27;20220;-81
2023/05/23 03:29:52;;;;;;;30.55;8.90;;;12.00;99.90;;;;;;5118498;27;20111;-82
2023/05/23 03:32:17;;;;;;;32.15;9.55;;;12.00;99.90;;;;;;5130498;27;20462;-81
2023/05/23 03:34:43;;;;;;;25.95;9.25;;;12.00;99.90;;;;;;5132816;27;20062;-82
2023/05/23 03:37:10;;;;;;;28.55;8.30;;;12.00;99.90;;;;;;5129528;27;20042;-81
2023/05/23 03:39:35;;;;;;;40.85;9.07;;;12.00;99.90;;;;;;5132827;27;20053;-82
2023/05/23 03:42:01;;;;;;;28.60;8.13;;;12.00;99.90;;;;;;5123987;27;20038;-81
2023/05/23 03:44:29;;;;;;;36.25;8.45;;;12.00;99.90;;;;;;5098106;27;20147;-81
2023/05/23 03:46:55;;;;;;;32.10;7.85;;;12.00;99.90;;;;;;5113511;27;20494;-81
2023/05/23 03:49:21;;;;;;;32.83;8.35;;;12.00;99.90;;;;;;5129445;27;20084;-81
2023/05/23 03:51:46;;;;;;;30.60;7.40;;;12.00;99.90;;;;;;5124723;27;20043;-82
2023/05/23 03:54:12;;;;;;;30.95;7.95;;;12.00;99.90;;;;;;5115547;27;20054;-82
2023/05/23 03:56:38;;;;;;;31.27;7.75;;;11.90;99.90;;;;;;5129691;27;20047;-82
2023/05/23 03:59:03;;;;;;;29.05;7.38;;;11.90;99.90;;;;;;5128894;27;20042;-82
2023/05/23 04:01:29;;;;;;;26.13;7.43;;;11.90;99.90;;;;;;5125502;27;20114;-83
2023/05/23 04:03:55;;;;;;;25.05;7.22;;;11.90;99.90;;;;;;5129186;27;20042;-82
2023/05/23 04:06:21;;;;;;;31.17;7.85;;;11.90;99.90;;;;;;5105645;27;20430;-82
2023/05/23 04:08:47;;;;;;;27.67;7.32;;;11.90;99.90;;;;;;5115158;27;20537;-81
2023/05/23 04:11:13;;;;;;;28.08;7.10;;;11.90;99.90;;;;;;5115031;27;20122;-82
2023/05/23 04:13:38;;;;;;;28.92;7.05;;;11.80;99.90;;;;;;5127966;27;20035;-82
2023/05/23 04:16:05;;;;;;;32.78;6.65;;;11.80;99.90;;;;;;5125436;27;20191;-82
2023/05/23 04:18:32;;;;;;;29.13;6.90;;;11.90;99.90;;;;;;5128304;27;20058;-82
2023/05/23 04:20:58;;;;;;;24.98;6.20;;;11.90;99.90;;;;;;5106640;27;20138;-81
2023/05/23 04:23:24;;;;;;;20.77;5.32;;;11.80;99.90;;;;;;5101719;27;20402;-82
2023/05/23 04:25:50;;;;;;;26.38;4.90;;;11.90;99.90;;;;;;5106490;27;20039;-81
2023/05/23 04:28:16;;;;;;;27.17;5.85;;;11.80;99.90;;;;;;5129534;27;20053;-81
2023/05/23 04:30:42;;;;;;;22.90;5.03;;;11.80;99.90;;;;;;5123046;27;20035;-81
2023/05/23 04:33:09;;;;;;;18.98;4.80;;;11.90;99.90;;;;;;5131186;27;20079;-81
2023/05/23 04:35:37;;;;;;;28.50;5.30;;;11.90;99.90;;;;;;5112525;27;20131;-82
2023/05/23 04:38:03;;;;;;;21.42;4.85;;;11.90;99.90;;;;;;5114961;27;20037;-81
2023/05/23 04:40:30;;;;;;;24.33;5.15;;;11.90;99.90;;;;;;5113753;27;20058;-81
2023/05/23 04:42:56;;;;;;;19.17;4.43;;;11.90;99.90;;;;;;5115126;27;20046;-81
2023/05/23 04:45:22;;;;;;;25.05;5.40;;;11.80;99.90;;;;;;5111388;27;20051;-82
2023/05/23 04:47:47;;;;;;;19.08;4.28;;;11.80;99.90;;;;;;5130762;27;20039;-81
2023/05/23 04:50:13;;;;;;;26.38;4.80;;;11.80;99.90;;;;;;5114225;27;20108;-81
2023/05/23 04:52:39;;;;;;;25.83;5.95;;;11.70;99.90;;;;;;5112696;27;20371;-81
2023/05/23 04:55:07;;;;;;;26.00;6.03;;;11.80;99.90;;;;;;5112168;27;20126;-81
2023/05/23 04:57:33;;;;;;;25.20;6.72;;;11.80;99.90;;;;;;5129792;27;20047;-80
2023/05/23 05:00:00;;;;;;;23.85;6.88;;;11.70;99.90;;;;;;5114029;27;20039;-81
2023/05/23 05:02:26;;;;;;;30.55;8.20;;;11.70;99.90;;;;;;5112485;27;20034;-81
2023/05/23 05:04:52;;;;;;;30.20;8.63;;;11.70;99.90;;;;;;5131309;27;20058;-81
2023/05/23 05:07:18;;;;;;;29.45;8.27;;;11.60;99.90;;;;;;5113475;27;20047;-81
2023/05/23 05:09:44;;;;;;;22.60;7.93;;;11.60;99.90;;;;;;5128842;27;20073;-81
2023/05/23 05:12:09;;;;;;;31.45;9.85;;;11.60;99.90;;;;;;5127738;27;20039;-80
2023/05/23 05:14:36;;;;;;;29.38;8.90;;;11.50;99.90;;;;;;5125946;27;20462;-80
2023/05/23 05:17:02;;;;;;;30.23;9.27;;;11.50;99.90;;;;;;5128641;27;20099;-81
2023/05/23 05:19:28;;;;;;;29.65;9.07;;;11.50;99.90;;;;;;5110538;27;20063;-81
2023/05/23 05:21:54;;;;;;;27.65;9.02;;;11.40;99.90;;;;;;5127846;27;20094;-81
2023/05/23 05:24:21;;;;;;;21.70;8.25;;;11.40;99.90;;;;;;5144262;27;20045;-81
2023/05/23 05:26:47;;;;;;;26.48;7.82;;;11.40;99.90;;;;;;5113921;27;20046;-81
2023/05/23 05:29:13;;;;;;;19.27;7.57;;;11.30;99.90;;;;;;5113082;27;20076;-81
2023/05/23 05:31:39;;;;;;;30.08;8.20;;;11.30;99.90;;;;;;5124975;27;20116;-80
2023/05/23 05:34:05;;;;;;;21.08;7.75;;;11.30;99.90;;;;;;5123422;27;20475;-80
2023/05/23 05:36:31;;;;;;;18.23;7.07;;;11.30;99.90;;;;;;5092180;27;20059;-80
2023/05/23 05:38:57;;;;;;;22.08;6.55;;;11.30;99.90;;;;;;5125459;27;20043;-81
2023/05/23 05:41:22;;;;;;;21.70;7.43;;;11.30;99.90;;;;;;5109427;27;20047;-81
2023/05/23 05:43:48;;;;;;;21.90;7.15;;;11.30;99.90;;;;;;5111656;27;20079;-80
2023/05/23 05:46:14;;;;;;;23.17;6.82;;;11.30;99.90;;;;;;5110837;27;20051;-81
2023/05/23 05:48:40;;;;;;;26.98;7.05;;;11.30;99.90;;;;;;5113510;27;20047;-81
2023/05/23 05:51:05;;;;;;;21.35;7.43;;;11.30;99.90;;;;;;5111535;27;20058;-81
2023/05/23 05:53:31;;;;;;;22.92;6.65;;;11.30;99.90;;;;;;5106739;27;20047;-81
2023/05/23 05:55:57;;;;;;;26.83;6.65;;;11.30;99.90;;;;;;5125649;27;20043;-81
2023/05/23 05:58:22;;;;;;;17.90;6.15;;;11.30;99.90;;;;;;5115109;27;20482;-81
2023/05/23 06:00:48;;;;;;;24.30;5.32;;;11.30;99.90;;;;;;5115964;27;20074;-81
2023/05/23 06:03:14;;;;;;;16.85;5.15;;;11.30;99.90;;;;;;5107554;27;20039;-81
2023/05/23 06:05:40;;;;;;;18.27;5.43;;;11.30;99.90;;;;;;5113509;27;20308;-81
2023/05/23 06:08:06;;;;;;;20.50;5.15;;;11.30;99.90;;;;;;5097157;27;20073;-81
2023/05/23 06:10:32;;;;;;;15.20;4.13;;;11.30;99.90;;;;;;5113312;27;20039;-80
2023/05/23 06:12:58;;;;;;;21.48;4.40;;;11.30;99.90;;;;;;5112738;27;20035;-81
2023/05/23 06:15:25;;;;;;;16.27;4.10;;;11.30;99.90;;;;;;5094033;27;20075;-81
2023/05/23 06:17:51;;;;;;;18.25;4.18;;;11.30;99.90;;;;;;5095730;27;20051;-81
2023/05/23 06:20:17;;;;;;;25.48;4.72;;;11.30;99.90;;;;;;5093192;28;20072;-81
2023/05/23 06:22:42;;;;;;;19.38;5.05;;;11.20;99.90;;;;;;5112864;27;20047;-81
2023/05/23 06:25:08;;;;;;;27.02;4.93;;;11.20;99.90;;;;;;5129855;27;20401;-81
2023/05/23 06:27:34;;;;;;;20.70;5.20;;;11.10;99.90;;;;;;5127522;27;20088;-81
2023/05/23 06:30:00;;;;;;;19.27;5.20;;;11.10;99.90;;;;;;5112283;27;20063;-81
2023/05/23 06:32:25;;;;;;;18.65;4.35;;;11.10;99.90;;;;;;5108393;27;20609;-81
2023/05/23 06:34:51;;;;;;;25.15;5.47;;;11.10;99.90;;;;;;5122738;27;20035;-81
2023/05/23 06:37:17;;;;;;;27.52;5.60;;;11.10;99.90;;;;;;5112021;27;20382;-81
2023/05/23 06:39:42;;;;;;;21.30;5.10;;;11.20;99.90;;;;;;5120445;28;20091;-81
2023/05/23 06:42:08;;;;;;;26.27;5.10;;;11.20;99.90;;;;;;5096532;27;20180;-81
2023/05/23 06:44:34;;;;;;;29.42;4.88;;;11.20;99.90;;;;;;5122008;27;20504;-80
2023/05/23 06:47:00;;;;;;;23.25;5.55;;;11.30;99.90;;;;;;5120890;27;20047;-81
2023/05/23 06:49:25;;;;;;;30.00;5.30;;;11.30;99.90;;;;;;5147989;27;20496;-81
2023/05/23 06:51:51;;;;;;;25.38;4.90;;;11.40;99.90;;;;;;5129585;27;20047;-80
2023/05/23 06:54:18;;;;;;;27.52;4.90;;;11.50;99.90;;;;;;5111836;27;20365;-80
2023/05/23 06:56:44;;;;;;;19.95;4.70;;;11.60;99.90;;;;;;5128842;27;20130;-81
2023/05/23 06:59:10;;;;;;;28.17;5.25;;;11.60;99.90;;;;;;5148060;27;20079;-81
2023/05/23 07:01:35;;;;;;;27.00;5.00;;;11.60;99.90;;;;;;5128144;27;20572;-81
2023/05/23 07:04:01;;;;;;;22.88;4.15;;;11.70;99.90;;;;;;5140384;27;20041;-80
2023/05/23 07:06:27;;;;;;;30.73;4.90;;;11.70;99.90;;;;;;5121501;27;20502;-80
2023/05/23 07:08:53;;;;;;;26.02;4.90;;;11.70;99.90;;;;;;5112560;28;20039;-80
2023/05/23 07:11:21;;;;;;;24.10;4.43;;;11.70;99.90;;;;;;5124220;27;20388;-80
2023/05/23 07:13:46;;;;;;;26.52;4.85;;;11.70;99.90;;;;;;5141863;27;20046;-80
2023/05/23 07:16:12;;;;;;;22.65;4.75;;;11.80;99.90;;;;;;5114697;27;20043;-80
2023/05/23 07:18:38;;;;;;;26.60;6.00;;;11.80;99.90;;;;;;5111054;27;20112;-80
2023/05/23 07:21:04;;;;;;;34.80;5.00;;;11.80;99.90;;;;;;5131493;27;20058;-81
2023/05/23 07:23:34;;;;;;;26.23;5.68;;;11.80;99.90;;;;;;5131346;27;20050;-81
2023/05/23 07:26:01;;;;;;;24.25;4.47;;;11.80;99.90;;;;;;5124350;27;20043;-80
2023/05/23 07:28:27;;;;;;;30.23;5.18;;;11.80;99.90;;;;;;5120742;27;20088;-81
2023/05/23 07:30:53;;;;;;;26.88;4.70;;;11.70;99.90;;;;;;5125485;27;20074;-81
2023/05/23 07:33:19;;;;;;;24.92;4.97;;;11.70;99.90;;;;;;5122512;27;20045;-81
2023/05/23 07:35:45;;;;;;;26.30;4.55;;;11.70;99.90;;;;;;5115220;27;20077;-80
2023/05/23 07:38:11;;;;;;;21.35;4.68;;;11.80;99.90;;;;;;5128945;27;20100;-81
2023/05/23 07:40:39;;;;;;;23.73;4.25;;;11.90;99.90;;;;;;5128091;27;20042;-82
2023/05/23 07:43:04;;;;;;;21.27;4.80;;;12.00;99.90;;;;;;5131891;27;20138;-81
2023/05/23 07:45:30;;;;;;;27.60;4.80;;;12.00;99.90;;;;;;5115037;27;20475;-82
2023/05/23 07:47:56;;;;;;;34.20;4.65;;;12.10;99.90;;;;;;5108191;27;20078;-80
2023/05/23 07:50:22;;;;;;;26.90;4.65;;;12.20;99.90;;;;;;5122710;27;20071;-80
2023/05/23 07:52:50;;;;;;;26.38;5.10;;;12.40;99.90;;;;;;5132819;27;20547;-81
2023/05/23 07:55:15;;;;;;;22.88;5.13;;;12.50;99.90;;;;;;5132089;27;20106;-81
2023/05/23 07:57:41;;;;;;;29.05;4.88;;;12.50;99.90;;;;;;5123312;27;20145;-80
2023/05/23 08:00:08;;;;;;;30.90;4.85;;;12.50;99.90;;;;;;5111532;27;20460;-80
2023/05/23 08:02:35;;;;;;;25.00;4.13;;;12.50;99.90;;;;;;5131634;27;20133;-81
2023/05/23 08:05:01;;;;;;;23.65;4.07;;;12.60;99.90;;;;;;5115062;27;20093;-81
2023/05/23 08:07:27;;;;;;;23.48;5.03;;;12.60;99.90;;;;;;5131250;27;20039;-81
2023/05/23 08:09:52;;;;;;;27.48;4.63;;;12.50;99.90;;;;;;5132529;27;20035;-81
2023/05/23 08:12:18;;;;;;;18.10;4.10;;;12.60;99.90;;;;;;5131341;27;20035;-81
2023/05/23 08:14:44;;;;;;;24.75;4.15;;;12.50;99.90;;;;;;5131399;27;20050;-81
2023/05/23 08:17:11;;;;;;;19.33;3.70;;;12.50;99.90;;;;;;5131859;27;20133;-80
2023/05/23 08:19:37;;;;;;;25.20;5.65;;;12.60;99.90;;;;;;5130643;27;20050;-80
2023/05/23 08:22:04;;;;;;;28.15;4.75;;;12.80;99.90;;;;;;5132777;27;20129;-80
2023/05/23 08:24:30;;;;;;;25.75;5.25;;;12.80;99.90;;;;;;5127628;27;20130;-80
2023/05/23 08:26:56;;;;;;;22.20;4.07;;;12.80;99.90;;;;;;5117403;27;20043;-80
2023/05/23 08:29:22;;;;;;;32.08;5.22;;;12.90;99.90;;;;;;5146596;27;20041;-80
2023/05/23 08:31:47;;;;;;;26.02;5.55;;;13.00;99.90;;;;;;5129561;27;20039;-80
2023/05/23 08:34:13;;;;;;;25.40;3.88;;;13.00;99.90;;;;;;5130965;27;20419;-80
2023/05/23 08:36:41;;;;;;;25.63;4.50;;;13.20;99.90;;;;;;5131905;27;20306;-80
2023/05/23 08:39:06;;;;;;;19.83;3.70;;;13.40;99.90;;;;;;5131103;27;20035;-80
2023/05/23 08:41:33;;;;;;;21.23;4.32;;;13.50;99.90;;;;;;5150540;27;20038;-80
2023/05/23 08:43:59;;;;;;;21.13;4.35;;;13.50;99.90;;;;;;5150794;27;20043;-80
2023/05/23 08:46:26;;;;;;;21.05;4.63;;;13.40;99.90;;;;;;5129621;27;20590;-80
2023/05/23 08:48:53;;;;;;;26.23;4.53;;;13.30;99.90;;;;;;5113923;27;20469;-80
2023/05/23 08:51:21;;;;;;;21.30;4.65;;;13.30;99.90;;;;;;5110892;27;20043;-80
2023/05/23 08:53:48;;;;;;;28.42;4.72;;;13.30;99.90;;;;;;5128363;27;20035;-80
2023/05/23 08:56:15;;;;;;;18.83;4.07;;;13.30;99.90;;;;;;5131369;27;20085;-80
2023/05/23 08:58:42;;;;;;;21.70;3.80;;;13.30;99.90;;;;;;5110778;27;20072;-80
2023/05/23 09:01:09;;;;;;;19.60;3.65;;;13.30;99.90;;;;;;5121597;27;20447;-80
2023/05/23 09:03:36;;;;;;;23.20;5.03;;;13.30;99.90;;;;;;5131024;27;20042;-80
2023/05/23 09:06:06;;;;;;;21.33;4.20;;;13.30;99.90;;;;;;5131047;27;20099;-80
2023/05/23 09:08:33;;;;;;;24.80;4.60;;;13.40;99.90;;;;;;5109482;27;20078;-80
2023/05/23 09:11:01;;;;;;;21.30;4.50;;;13.50;99.90;;;;;;5123568;27;20042;-80
2023/05/23 09:13:29;;;;;;;15.93;3.08;;;13.50;99.90;;;;;;5130622;27;20046;-80
2023/05/23 09:15:58;;;;;;;22.20;4.85;;;13.40;99.90;;;;;;5108981;27;20100;-80
2023/05/23 09:18:26;;;;;;;22.67;3.95;;;13.30;99.90;;;;;;5127197;27;20055;-80
2023/05/23 09:20:52;;;;;;;18.58;4.28;;;13.20;99.90;;;;;;5121131;27;20047;-80
2023/05/23 09:23:18;;;;;;;21.17;4.13;;;13.10;99.90;;;;;;5129579;27;20100;-80
2023/05/23 09:25:46;;;;;;;28.35;4.75;;;13.10;99.90;;;;;;5116425;27;20147;-80
2023/05/23 09:28:12;;;;;;;21.70;3.88;;;13.10;99.90;;;;;;5130856;27;20043;-79
2023/05/23 09:30:38;;;;;;;18.73;3.88;;;13.20;99.90;;;;;;5125640;27;20080;-80
2023/05/23 09:33:04;;;;;;;25.52;3.88;;;13.30;99.90;;;;;;5127004;27;20089;-80
2023/05/23 09:35:30;;;;;;;30.52;3.90;;;13.40;99.90;;;;;;5123303;27;20074;-80
2023/05/23 09:37:58;;;;;;;23.88;4.18;;;13.50;99.90;;;;;;5127177;27;20461;-80
2023/05/23 09:40:30;;;;;;;18.55;3.90;;;13.50;99.90;;;;;;5120264;27;20135;-80
2023/05/23 09:43:02;;;;;;;24.60;4.07;;;13.50;99.90;;;;;;5109476;27;20035;-80
2023/05/23 09:45:30;;;;;;;16.98;3.70;;;13.60;99.90;;;;;;5143951;27;20268;-80
2023/05/23 09:47:55;;;;;;;18.00;3.90;;;13.70;99.90;;;;;;5126886;27;20062;-80
2023/05/23 09:50:22;;;;;;;20.50;4.38;;;13.80;99.90;;;;;;5107772;27;20043;-80
2023/05/23 09:52:48;;;;;;;17.92;3.38;;;14.20;99.90;;;;;;5126805;27;20485;-80
2023/05/23 09:55:14;;;;;;;19.67;3.60;;;14.40;99.90;;;;;;5123083;27;20131;-80
2023/05/23 09:57:41;;;;;;;18.08;3.80;;;14.40;99.90;;;;;;5092020;27;20126;-80
2023/05/23 10:00:14;;;;;;;25.55;4.80;;;14.40;99.90;;;;;;5113100;27;20457;-79
2023/05/23 10:03:07;;;;;;;23.65;3.80;;;14.30;99.90;;;;;;5126068;27;20518;-79
2023/05/23 10:05:47;;;;;;;20.13;3.53;;;14.20;99.90;;;;;;5129372;27;20111;-80
2023/05/23 10:08:18;;;;;;;20.85;3.88;;;14.10;99.90;;;;;;5129789;27;20518;-79
2023/05/23 10:10:56;;;;;;;28.70;4.32;;;14.20;99.90;;;;;;5125726;27;20043;-79
2023/05/23 10:13:27;;;;;;;23.70;4.40;;;14.20;99.90;;;;;;5125278;27;20092;-79
2023/05/23 10:15:59;;;;;;;27.02;4.85;;;14.20;99.90;;;;;;5122273;27;20046;-79
2023/05/23 10:18:28;;;;;;;22.58;3.80;;;14.00;99.90;;;;;;5107854;27;20083;-79
2023/05/23 10:21:00;;;;;;;17.55;3.78;;;13.90;99.90;;;;;;5124269;27;20058;-80
2023/05/23 10:23:27;;;;;;;21.38;4.15;;;13.90;99.90;;;;;;5146306;27;20538;-80
2023/05/23 10:25:54;;;;;;;16.98;3.63;;;14.00;99.90;;;;;;5116960;27;20051;-79
2023/05/23 10:28:20;;;;;;;22.85;3.60;;;14.00;99.90;;;;;;5129341;27;20523;-80
2023/05/23 10:30:47;;;;;;;15.68;3.47;;;13.90;99.90;;;;;;5111953;27;20053;-79
2023/05/23 10:33:15;;;;;;;20.38;3.25;;;13.70;99.90;;;;;;5129147;27;20054;-80
2023/05/23 10:35:49;;;;;;;19.30;3.28;;;13.70;99.90;;;;;;5111166;27;20427;-80
2023/05/23 10:38:40;;;;;;;18.38;3.35;;;13.90;99.90;;;;;;5136622;27;20070;-80
2023/05/23 10:41:20;;;;;;;14.07;3.50;;;14.00;99.90;;;;;;5102632;27;20075;-81
2023/05/23 10:44:08;;;;;;;26.33;3.50;;;13.90;99.90;;;;;;5128460;27;20050;-80
2023/05/23 10:46:53;;;;;;;18.73;3.35;;;14.00;99.90;;;;;;5128262;27;20051;-80
2023/05/23 10:49:21;;;;;;;18.75;3.10;;;14.00;99.90;;;;;;5121924;27;20051;-81
2023/05/23 10:51:50;;;;;;;18.92;2.90;;;14.20;99.90;;;;;;5119898;27;20043;-81
2023/05/23 10:54:19;;;;;;;21.23;4.10;;;14.60;99.90;;;;;;5120739;27;20113;-81
2023/05/23 10:56:45;;;;;;;22.52;4.18;;;14.80;99.90;;;;;;5130677;27;20054;-81
2023/05/23 10:59:21;;;;;;;16.27;3.00;;;14.90;99.90;;;;;;5125864;27;20104;-81
2023/05/23 11:01:50;;;;;;;22.77;3.75;;;15.00;99.90;;;;;;5117334;27;20128;-81
2023/05/23 11:04:26;;;;;;;18.45;3.30;;;15.00;99.90;;;;;;5130461;27;20493;-81
2023/05/23 11:06:55;;;;;;;20.00;3.58;;;15.10;99.90;;;;;;5111081;27;20085;-82
2023/05/23 11:09:21;;;;;;;22.40;3.83;;;15.20;99.90;;;;;;5104504;27;20043;-81
2023/05/23 11:11:49;;;;;;;23.48;3.40;;;15.10;99.90;;;;;;5114110;27;20520;-81
2023/05/23 11:14:15;;;;;;;21.67;3.53;;;15.00;99.90;;;;;;5107181;27;20103;-81
2023/05/23 11:16:42;;;;;;;21.63;3.92;;;14.80;99.90;;;;;;5115520;27;20576;-81
2023/05/23 11:19:17;;;;;;;20.55;3.92;;;14.60;99.90;;;;;;5116066;27;20125;-81
2023/05/23 11:21:45;;;;;;;22.00;4.20;;;14.60;99.90;;;;;;5115475;27;20074;-81
2023/05/23 11:24:11;;;;;;;20.77;3.13;;;14.50;99.90;;;;;;5115657;27;20043;-81
2023/05/23 11:26:37;;;;;;;19.27;3.28;;;14.60;99.90;;;;;;5116162;27;20102;-81
2023/05/23 11:29:08;;;;;;;18.73;3.83;;;14.50;99.90;;;;;;5132555;27;20542;-81
2023/05/23 11:31:39;;;;;;;17.23;3.72;;;14.40;99.90;;;;;;5111554;27;20043;-81
2023/05/23 11:34:06;;;;;;;19.65;2.97;;;14.40;99.90;;;;;;5112192;27;20049;-82
2023/05/23 11:36:32;;;;;;;20.38;3.85;;;14.50;99.90;;;;;;5115056;27;20051;-81
2023/05/23 11:39:02;;;;;;;24.23;3.85;;;14.80;99.90;;;;;;5133015;27;20406;-81
2023/05/23 11:41:29;;;;;;;16.10;3.80;;;14.80;99.90;;;;;;5132757;27;20397;-81
2023/05/23 11:43:55;;;;;;;19.13;2.80;;;14.80;99.90;;;;;;5115010;27;20042;-81
2023/05/23 11:46:21;;;;;;;19.38;4.03;;;14.90;99.90;;;;;;5113807;27;20057;-81
2023/05/23 11:48:47;;;;;;;21.35;3.22;;;15.10;99.90;;;;;;5132970;27;20081;-81
2023/05/23 11:51:14;;;;;;;22.02;3.90;;;15.10;99.90;;;;;;5131275;27;20099;-81
2023/05/23 11:53:40;;;;;;;19.30;3.53;;;15.20;99.90;;;;;;5112362;27;20054;-81
2023/05/23 11:56:07;;;;;;;16.48;3.10;;;15.20;99.90;;;;;;5127622;27;20110;-81
2023/05/23 11:58:34;;;;;;;18.55;3.00;;;15.10;99.90;;;;;;5129177;27;20158;-81
2023/05/23 12:01:03;;;;;;;15.35;3.25;;;15.20;99.90;;;;;;5107684;27;20502;-81
2023/05/23 12:03:29;;;;;;;22.15;3.47;;;15.40;99.90;;;;;;5128270;27;20121;-81
2023/05/23 12:05:55;;;;;;;19.92;3.78;;;15.50;99.90;;;;;;5129037;27;20562;-80
2023/05/23 12:08:21;;;;;;;20.90;3.97;;;15.30;99.90;;;;;;5147763;27;20125;-80
2023/05/23 12:10:52;;;;;;;21.45;3.75;;;15.20;99.90;;;;;;5128430;27;20058;-80
2023/05/23 12:13:19;;;;;;;23.15;3.67;;;15.30;99.90;;;;;;5147077;27;20171;-80
2023/05/23 12:15:46;;;;;;;21.77;3.80;;;15.60;99.90;;;;;;5150401;27;20130;-79
2023/05/23 12:18:12;;;;;;;19.20;3.78;;;15.40;99.90;;;;;;5130073;27;20059;-82
2023/05/23 12:20:39;;;;;;;18.25;3.42;;;15.30;99.90;;;;;;5128203;27;20513;-83
2023/05/23 12:23:05;;;;;;;20.52;2.90;;;15.20;99.90;;;;;;5130984;27;20091;-79
2023/05/23 12:25:40;;;;;;;13.80;2.90;;;15.30;99.90;;;;;;5130884;27;20125;-79
2023/05/23 12:28:06;;;;;;;20.58;3.13;;;15.50;99.90;;;;;;5131212;27;20038;-79
2023/05/23 12:30:41;;;;;;;23.38;3.42;;;15.80;99.90;;;;;;5119120;27;20050;-79
2023/05/23 12:33:08;;;;;;;29.70;3.58;;;15.60;99.90;;;;;;5131409;27;20035;-79
2023/05/23 12:35:34;;;;;;;21.25;3.80;;;15.30;99.90;;;;;;5131109;27;20043;-79